This is the latest recevied weather packets stored in our database for station/object OK2ZA-6. If no packets are shown the sender has not sent any weather packets the latest 10 day(s).
| Time | Temp. | Humidity | Pressure | Rain* | Wind** | Luminosity | Snow |
|---|---|---|---|---|---|---|---|
| 1777489204 | 5.56° C | 41% | 1026.7 hPa | 0 mm | - | - | - |
| 1777488603 | 5.56° C | 41% | 1026.6 hPa | 0 mm | - | - | - |
| 1777488004 | 6.11° C | 40% | 1026.3 hPa | 0 mm | - | - | - |
| 1777487404 | 6.11° C | 40% | 1026.1 hPa | 0 mm | - | - | - |
| 1777486803 | 6.67° C | 38% | 1025.8 hPa | 0 mm | - | - | - |
| 1777486204 | 6.67° C | 36% | 1025.7 hPa | 0 mm | - | - | - |
| 1777485604 | 7.22° C | 34% | 1025.5 hPa | 0 mm | - | - | - |
| 1777485003 | 7.22° C | 34% | 1025.3 hPa | 0 mm | - | - | - |
| 1777484404 | 7.22° C | 36% | 1025.2 hPa | 0 mm | - | - | - |
| 1777483804 | 7.78° C | 34% | 1025 hPa | 0 mm | - | - | - |
| 1777483204 | 8.33° C | 34% | 1024.9 hPa | 0 mm | - | - | - |
| 1777482604 | 8.33° C | 33% | 1024.5 hPa | 0 mm | - | - | - |
| 1777482004 | 8.89° C | 33% | 1024.4 hPa | 0 mm | - | - | - |
| 1777481404 | 8.89° C | 33% | 1024.3 hPa | 0 mm | - | - | - |
| 1777480804 | 9.44° C | 32% | 1024.1 hPa | 0 mm | - | - | - |
| 1777480204 | 10° C | 33% | 1024.1 hPa | 0 mm | - | - | - |
| 1777479604 | 10° C | 33% | 1024 hPa | 0 mm | - | - | - |
| 1777479004 | 10° C | 34% | 1023.9 hPa | 0 mm | - | - | - |
| 1777478404 | 10° C | 33% | 1023.7 hPa | 0 mm | - | - | - |
| 1777477804 | 10.56° C | 36% | 1023.6 hPa | 0 mm | - | - | - |
| 1777477204 | 10.56° C | 36% | 1023.5 hPa | 0 mm | - | - | - |
| 1777476604 | 10.56° C | 36% | 1023.4 hPa | 0 mm | - | - | - |
| 1777476004 | 11.11° C | 37% | 1023.4 hPa | 0 mm | - | - | - |
* Rain latest hour (hover to see other rain measurements)
** Current wind speed in m/s (hover to see current wind gust speed)